Time,TemperatureF,DewpointF,PressureIn,WindDirection,WindDirectionDegrees,WindSpeedMPH,WindSpeedGustMPH,Humidity,HourlyPrecipIn,Conditions,Clouds,dailyrainin,SoftwareType,DateUTC
2013-10-02 09:05:00,38.8,31.6,27.40,West,261,0.0,0.0,75,0.00,,,0.00,VWS V14.01,2013-10-02 16:05:00,
2013-10-02 09:06:00,38.8,31.6,27.40,SSW,198,0.0,0.0,75,0.00,,,0.00,VWS V14.01,2013-10-02 16:06:00,
2013-10-02 09:11:00,32.9,29.2,27.32,WSW,258,0.0,0.0,86,0.00,,,0.00,VWS V14.01,2013-10-02 16:11:00,
2013-10-02 09:16:00,33.1,29.4,27.32,West,263,2.7,2.7,86,0.00,,,0.00,VWS V14.01,2013-10-02 16:16:00,
2013-10-02 09:21:00,33.6,29.9,27.32,SW,232,0.0,3.6,86,0.00,,,0.00,VWS V14.01,2013-10-02 16:21:00,
2013-10-02 09:26:00,34.3,29.1,27.32,WSW,240,5.8,5.8,81,0.00,,,0.00,VWS V14.01,2013-10-02 16:26:00,
2013-10-02 09:31:00,35.1,28.0,27.32,WNW,290,3.1,3.6,75,0.00,,,0.00,VWS V14.01,2013-10-02 16:31:00,
2013-10-02 09:36:00,36.0,28.8,27.32,WSW,237,5.8,5.8,75,0.00,,,0.00,VWS V14.01,2013-10-02 16:36:00,
2013-10-02 09:41:00,36.5,28.4,27.32,SSW,200,0.0,4.0,72,0.00,,,0.00,VWS V14.01,2013-10-02 16:41:00,
2013-10-02 09:46:00,36.9,28.0,27.32,West,259,0.0,0.0,70,0.00,,,0.00,VWS V14.01,2013-10-02 16:46:00,
2013-10-02 09:51:00,37.0,27.5,27.32,West,281,2.7,3.1,68,0.00,,,0.00,VWS V14.01,2013-10-02 16:51:00,
2013-10-02 09:56:00,37.4,27.5,27.32,WSW,245,0.0,2.2,67,0.00,,,0.00,VWS V14.01,2013-10-02 16:56:00,
2013-10-02 10:01:00,37.8,27.8,27.32,WSW,239,0.0,3.1,67,0.00,,,0.00,VWS V14.01,2013-10-02 17:01:00,
2013-10-02 10:05:00,38.3,28.3,27.32,SSW,207,0.0,0.0,67,0.00,,,0.00,VWS V14.01,2013-10-02 17:05:00,
2013-10-02 10:10:00,38.7,27.9,27.32,SW,220,0.0,0.0,65,0.00,,,0.00,VWS V14.01,2013-10-02 17:10:00,
2013-10-02 10:15:00,39.2,27.7,27.32,West,267,0.0,0.0,63,0.00,,,0.00,VWS V14.01,2013-10-02 17:15:00,
2013-10-02 10:20:00,39.9,28.0,27.32,WSW,240,0.0,0.0,62,0.00,,,0.00,VWS V14.01,2013-10-02 17:20:00,
2013-10-02 10:25:00,40.3,27.5,27.32,South,181,0.0,0.0,60,0.00,,,0.00,VWS V14.01,2013-10-02 17:25:00,
2013-10-02 10:30:00,40.5,26.4,27.32,West,264,0.0,0.0,57,0.00,,,0.00,VWS V14.01,2013-10-02 17:30:00,
2013-10-02 10:35:00,40.3,26.7,27.32,West,275,0.0,0.0,58,0.00,,,0.00,VWS V14.01,2013-10-02 17:35:00,
2013-10-02 10:40:00,40.8,27.6,27.32,NE,56,0.0,0.0,59,0.00,,,0.00,VWS V14.01,2013-10-02 17:40:00,
2013-10-02 10:45:00,41.2,28.0,27.32,SE,136,0.0,0.0,59,0.00,,,0.00,VWS V14.01,2013-10-02 17:45:00,
2013-10-02 10:50:00,41.7,27.6,27.32,SE,136,0.0,0.0,57,0.00,,,0.00,VWS V14.01,2013-10-02 17:50:00,
2013-10-02 10:55:00,41.9,27.8,27.32,SSE,165,0.0,0.0,57,0.00,,,0.00,VWS V14.01,2013-10-02 17:55:00,
2013-10-02 11:00:00,42.1,27.5,27.32,SSE,165,0.0,0.0,56,0.00,,,0.00,VWS V14.01,2013-10-02 18:00:00,
2013-10-02 11:05:00,42.6,27.6,27.32,SSE,147,0.0,0.0,55,0.00,,,0.00,VWS V14.01,2013-10-02 18:05:00,
2013-10-02 11:10:00,43.2,27.7,27.32,ENE,71,0.0,2.7,54,0.00,,,0.00,VWS V14.01,2013-10-02 18:10:00,
2013-10-02 11:15:00,43.5,28.0,27.32,NW,312,0.0,0.0,54,0.00,,,0.00,VWS V14.01,2013-10-02 18:15:00,
2013-10-02 11:20:00,43.7,28.2,27.32,SSE,159,0.0,0.0,54,0.00,,,0.00,VWS V14.01,2013-10-02 18:20:00,
2013-10-02 11:25:00,43.7,29.0,27.32,ESE,111,2.2,2.2,56,0.00,,,0.00,VWS V14.01,2013-10-02 18:25:00,
2013-10-02 11:30:00,43.9,29.2,27.29,East,86,0.0,0.0,56,0.00,,,0.00,VWS V14.01,2013-10-02 18:30:00,
2013-10-02 11:35:00,44.2,28.7,27.29,ENE,72,0.0,0.0,54,0.00,,,0.00,VWS V14.01,2013-10-02 18:35:00,
2013-10-02 11:40:00,44.8,29.2,27.29,East,94,0.0,0.0,54,0.00,,,0.00,VWS V14.01,2013-10-02 18:40:00,
2013-10-02 11:45:00,45.7,30.0,27.29,SSE,153,0.0,0.0,54,0.00,,,0.00,VWS V14.01,2013-10-02 18:45:00,
2013-10-02 11:50:00,46.4,29.3,27.29,NNE,13,2.2,4.0,51,0.00,,,0.00,VWS V14.01,2013-10-02 18:50:00,
2013-10-02 11:55:00,46.2,29.1,27.29,ENE,74,0.0,0.0,51,0.00,,,0.00,VWS V14.01,2013-10-02 18:55:00,
2013-10-02 12:00:00,46.0,28.9,27.29,SSE,147,0.0,0.0,51,0.00,,,0.00,VWS V14.01,2013-10-02 19:00:00,
2013-10-02 12:05:00,46.4,29.8,27.29,SSW,210,2.7,2.7,52,0.00,,,0.00,VWS V14.01,2013-10-02 19:05:00,
2013-10-02 12:10:00,46.4,28.8,27.29,SSW,202,0.0,0.0,50,0.00,,,0.00,VWS V14.01,2013-10-02 19:10:00,
2013-10-02 12:17:00,46.0,29.4,27.29,SSW,207,0.0,2.7,52,0.00,,,0.00,VWS V14.01,2013-10-02 19:17:00,
2013-10-02 12:22:00,46.2,29.1,27.29,WSW,252,2.2,2.2,51,0.00,,,0.00,VWS V14.01,2013-10-02 19:22:00,
2013-10-02 12:27:00,46.2,29.1,27.29,West,264,2.2,2.2,51,0.00,,,0.00,VWS V14.01,2013-10-02 19:27:00,
2013-10-02 12:32:00,46.4,28.8,27.29,SSW,206,0.0,0.0,50,0.00,,,0.00,VWS V14.01,2013-10-02 19:32:00,
2013-10-02 12:37:00,46.6,29.4,27.29,SSE,157,0.0,0.0,51,0.00,,,0.00,VWS V14.01,2013-10-02 19:37:00,
2013-10-02 16:27:00,46.8,28.6,27.29,West,271,0.0,0.0,49,0.00,,,0.00,VWS V14.01,2013-10-02 23:27:00,
2013-10-02 16:32:00,49.8,27.7,27.29,NNE,33,2.2,2.2,42,0.00,,,0.00,VWS V14.01,2013-10-02 23:32:00,
2013-10-02 16:37:00,49.6,28.1,27.29,West,272,3.1,3.1,43,0.00,,,0.00,VWS V14.01,2013-10-02 23:37:00,
2013-10-02 16:42:00,49.5,28.5,27.29,SW,226,0.0,3.6,44,0.00,,,0.00,VWS V14.01,2013-10-02 23:42:00,
2013-10-02 16:47:00,49.6,28.6,27.29,West,263,3.1,4.9,44,0.00,,,0.00,VWS V14.01,2013-10-02 23:47:00,
2013-10-02 16:49:00,49.8,29.9,27.29,SW,217,2.2,2.2,46,0.00,,,0.00,VWS V14.01,2013-10-02 23:49:00,
2013-10-02 16:54:00,50.0,29.5,27.29,WNW,295,3.1,3.1,45,0.00,,,0.00,VWS V14.01,2013-10-02 23:54:00,
2013-10-02 16:59:00,50.0,28.4,27.29,WNW,284,4.0,5.4,43,0.00,,,0.00,VWS V14.01,2013-10-02 23:59:00,
2013-10-02 17:04:00,50.0,28.4,27.29,SSW,205,0.0,0.0,43,0.00,,,0.00,VWS V14.01,2013-10-03 00:04:00,
2013-10-02 17:09:00,49.8,28.8,27.29,SSW,209,0.0,0.0,44,0.00,,,0.00,VWS V14.01,2013-10-03 00:09:00,
2013-10-02 17:32:00,49.8,28.8,27.29,SSW,209,0.0,0.0,44,0.00,,,0.00,VWS V14.01,2013-10-03 00:32:00,
2013-10-02 17:37:00,49.1,29.8,27.29,WSW,247,3.1,3.1,47,0.00,,,0.00,VWS V14.01,2013-10-03 00:37:00,
2013-10-02 17:42:00,49.3,29.9,27.29,SW,230,3.6,3.6,47,0.00,,,0.00,VWS V14.01,2013-10-03 00:42:00,
2013-10-02 17:47:00,49.6,29.7,27.29,West,265,2.7,4.0,46,0.00,,,0.00,VWS V14.01,2013-10-03 00:47:00,
2013-10-02 17:52:00,49.8,29.4,27.29,WNW,299,4.0,4.0,45,0.00,,,0.00,VWS V14.01,2013-10-03 00:52:00,
2013-10-02 17:57:00,49.6,29.7,27.29,West,280,3.1,3.1,46,0.00,,,0.00,VWS V14.01,2013-10-03 00:57:00,
2013-10-02 18:02:00,49.3,29.4,27.29,WNW,289,4.5,4.5,46,0.00,,,0.00,VWS V14.01,2013-10-03 01:02:00,
2013-10-02 18:07:00,48.6,28.2,27.29,WNW,292,3.1,3.6,45,0.00,,,0.00,VWS V14.01,2013-10-03 01:07:00,
2013-10-02 18:12:00,48.0,28.8,27.29,SW,218,7.6,7.6,47,0.00,,,0.00,VWS V14.01,2013-10-03 01:12:00,
2013-10-02 18:17:00,47.7,29.0,27.29,SW,235,7.6,7.6,48,0.00,,,0.00,VWS V14.01,2013-10-03 01:17:00,
2013-10-02 18:22:00,47.1,28.5,27.29,West,260,4.5,4.5,48,0.00,,,0.00,VWS V14.01,2013-10-03 01:22:00,
2013-10-02 18:27:00,46.6,28.5,27.29,WSW,246,0.0,0.0,49,0.00,,,0.00,VWS V14.01,2013-10-03 01:27:00,
2013-10-02 18:32:00,46.0,28.5,27.29,West,260,0.0,3.1,50,0.00,,,0.00,VWS V14.01,2013-10-03 01:32:00,
2013-10-02 18:37:00,45.9,28.8,27.29,SW,224,2.7,2.7,51,0.00,,,0.00,VWS V14.01,2013-10-03 01:37:00,
2013-10-02 18:42:00,45.7,29.1,27.29,SW,235,2.7,5.8,52,0.00,,,0.00,VWS V14.01,2013-10-03 01:42:00,
2013-10-02 18:47:00,45.5,28.9,27.29,WSW,255,5.8,5.8,52,0.00,,,0.00,VWS V14.01,2013-10-03 01:47:00,
2013-10-02 18:52:00,45.1,29.0,27.29,WSW,238,2.7,2.7,53,0.00,,,0.00,VWS V14.01,2013-10-03 01:52:00,
2013-10-02 18:57:00,44.8,28.7,27.29,WSW,251,2.2,3.6,53,0.00,,,0.00,VWS V14.01,2013-10-03 01:57:00,
2013-10-02 19:02:00,44.4,28.8,27.29,SW,225,2.2,4.0,54,0.00,,,0.00,VWS V14.01,2013-10-03 02:02:00,
2013-10-02 19:05:00,44.2,28.7,27.29,West,267,0.0,0.0,54,0.00,,,0.00,VWS V14.01,2013-10-03 02:05:00,
2013-10-02 19:10:00,43.9,28.8,27.29,WSW,258,0.0,0.0,55,0.00,,,0.00,VWS V14.01,2013-10-03 02:10:00,
2013-10-02 19:15:00,43.5,28.9,27.29,WSW,246,3.1,3.1,56,0.00,,,0.00,VWS V14.01,2013-10-03 02:15:00,
2013-10-02 19:20:00,43.3,28.7,27.29,WNW,283,2.7,2.7,56,0.00,,,0.00,VWS V14.01,2013-10-03 02:20:00,
2013-10-02 19:25:00,43.3,29.1,27.29,SW,236,3.1,3.1,57,0.00,,,0.00,VWS V14.01,2013-10-03 02:25:00,
2013-10-02 19:30:00,43.2,29.0,27.29,WNW,285,0.0,0.0,57,0.00,,,0.00,VWS V14.01,2013-10-03 02:30:00,
2013-10-02 19:35:00,43.0,28.8,27.29,WSW,240,0.0,0.0,57,0.00,,,0.00,VWS V14.01,2013-10-03 02:35:00,
2013-10-02 19:40:00,42.8,28.6,27.29,WNW,290,0.0,0.0,57,0.00,,,0.00,VWS V14.01,2013-10-03 02:40:00,
2013-10-02 19:45:00,42.8,28.6,27.29,SW,229,0.0,0.0,57,0.00,,,0.00,VWS V14.01,2013-10-03 02:45:00,
2013-10-02 19:50:00,42.8,28.6,27.29,SW,230,0.0,0.0,57,0.00,,,0.00,VWS V14.01,2013-10-03 02:50:00,
2013-10-02 19:55:00,42.6,28.9,27.29,WSW,244,3.1,3.6,58,0.00,,,0.00,VWS V14.01,2013-10-03 02:55:00,
2013-10-02 20:00:00,42.6,28.9,27.29,SW,224,0.0,2.2,58,0.00,,,0.00,VWS V14.01,2013-10-03 03:00:00,
2013-10-02 20:05:00,42.6,28.9,27.29,WSW,247,0.0,4.0,58,0.00,,,0.00,VWS V14.01,2013-10-03 03:05:00,
2013-10-02 20:10:00,42.4,29.1,27.29,WSW,248,0.0,0.0,59,0.00,,,0.00,VWS V14.01,2013-10-03 03:10:00,
2013-10-02 21:12:00,42.4,29.1,27.29,WNW,300,0.0,0.0,59,0.00,,,0.00,VWS V14.01,2013-10-03 04:12:00,
2013-10-02 21:17:00,42.3,31.0,27.32,West,269,0.0,0.0,64,0.00,,,0.00,VWS V14.01,2013-10-03 04:17:00,
2013-10-02 21:22:00,42.3,31.4,27.32,West,269,0.0,0.0,65,0.00,,,0.00,VWS V14.01,2013-10-03 04:22:00,
2013-10-02 21:27:00,42.3,31.4,27.32,West,268,0.0,0.0,65,0.00,,,0.00,VWS V14.01,2013-10-03 04:27:00,
2013-10-02 21:32:00,42.4,30.8,27.32,NW,309,0.0,0.0,63,0.00,,,0.00,VWS V14.01,2013-10-03 04:32:00,
2013-10-02 21:37:00,42.6,30.5,27.32,NW,308,0.0,0.0,62,0.00,,,0.00,VWS V14.01,2013-10-03 04:37:00,
2013-10-02 21:42:00,43.0,30.5,27.32,NW,308,0.0,0.0,61,0.00,,,0.00,VWS V14.01,2013-10-03 04:42:00,
2013-10-02 21:47:00,43.2,31.0,27.32,West,262,0.0,2.2,62,0.00,,,0.00,VWS V14.01,2013-10-03 04:47:00,
2013-10-02 21:52:00,43.3,31.2,27.32,West,272,2.2,2.2,62,0.00,,,0.00,VWS V14.01,2013-10-03 04:52:00,
2013-10-02 21:57:00,43.3,32.0,27.32,WNW,284,0.0,0.0,64,0.00,,,0.00,VWS V14.01,2013-10-03 04:57:00,
2013-10-02 22:02:00,43.3,32.8,27.32,WNW,293,5.4,5.4,66,0.00,,,0.00,VWS V14.01,2013-10-03 05:02:00,
2013-10-02 22:07:00,43.0,33.9,27.32,West,276,3.6,4.0,70,0.00,,,0.00,VWS V14.01,2013-10-03 05:07:00,
2013-10-02 22:12:00,42.6,34.2,27.32,WNW,301,3.1,3.1,72,0.00,,,0.00,VWS V14.01,2013-10-03 05:12:00,
2013-10-02 22:17:00,42.3,34.6,27.32,WNW,303,0.0,0.0,74,0.00,,,0.00,VWS V14.01,2013-10-03 05:17:00,
2013-10-02 22:29:00,41.5,35.8,27.34,WSW,254,0.0,2.7,80,0.00,,,0.00,VWS V14.01,2013-10-03 05:29:00,
2013-10-02 22:34:00,41.4,36.0,27.34,WSW,254,0.0,0.0,81,0.00,,,0.00,VWS V14.01,2013-10-03 05:34:00,
2013-10-02 22:39:00,41.4,36.9,27.34,WSW,254,0.0,0.0,84,0.00,,,0.00,VWS V14.01,2013-10-03 05:39:00,
2013-10-02 22:44:00,41.2,37.3,27.34,WSW,254,0.0,0.0,86,0.00,,,0.00,VWS V14.01,2013-10-03 05:44:00,
2013-10-02 22:49:00,41.0,37.1,27.34,WSW,254,0.0,0.0,86,0.00,,,0.00,VWS V14.01,2013-10-03 05:49:00,